createdAt,value
2022-10-25T00:00:52.482Z,92.90
2022-10-25T00:03:31.767Z,92.97
2022-10-25T00:06:00.480Z,92.97
2022-10-25T00:08:33.737Z,92.84
2022-10-25T00:11:02.925Z,92.93
2022-10-25T00:13:33.537Z,92.90
2022-10-25T00:16:03.006Z,92.90
2022-10-25T00:18:33.492Z,92.92
2022-10-25T00:21:06.274Z,92.84
2022-10-25T00:23:38.556Z,92.83
2022-10-25T00:26:09.178Z,92.91
2022-10-25T00:28:38.721Z,92.92
2022-10-25T00:31:10.054Z,92.82
2022-10-25T00:33:42.358Z,92.82
2022-10-25T00:36:15.427Z,92.83
2022-10-25T00:38:47.749Z,92.76
2022-10-25T00:41:19.877Z,92.76
2022-10-25T00:43:51.483Z,92.79
2022-10-25T00:46:21.673Z,92.78
2022-10-25T00:49:09.243Z,92.79
2022-10-25T00:51:52.649Z,92.70
2022-10-25T00:54:27.796Z,92.75
2022-10-25T00:57:00.150Z,92.83
2022-10-25T00:59:30.339Z,92.83
2022-10-25T01:01:59.748Z,92.97
2022-10-25T01:04:31.934Z,92.80
2022-10-25T01:07:03.733Z,92.78
2022-10-25T01:09:35.902Z,92.66
2022-10-25T01:12:05.110Z,92.71
2022-10-25T01:14:46.722Z,92.66
2022-10-25T01:17:40.801Z,92.71
2022-10-25T01:20:35.238Z,92.63
2022-10-25T01:23:16.054Z,92.67
2022-10-25T01:26:07.060Z,92.70
2022-10-25T01:29:03.780Z,92.69
2022-10-25T01:31:59.352Z,92.70
2022-10-25T01:34:41.839Z,92.64
2022-10-25T01:37:17.261Z,92.68
2022-10-25T01:39:51.610Z,92.76
2022-10-25T01:42:30.424Z,92.71
2022-10-25T01:45:25.150Z,92.56
2022-10-25T01:48:12.046Z,92.61
2022-10-25T01:50:45.184Z,92.53
2022-10-25T01:53:15.317Z,92.59
2022-10-25T01:56:07.193Z,92.39
2022-10-25T01:58:36.027Z,92.24
2022-10-25T02:01:31.227Z,92.26
2022-10-25T02:04:20.634Z,92.26
2022-10-25T02:07:11.953Z,92.32
2022-10-25T02:10:12.072Z,92.02
2022-10-25T02:12:54.379Z,92.06
2022-10-25T02:15:37.864Z,92.13
2022-10-25T02:21:03.896Z,92.26
2022-10-25T02:23:38.233Z,92.20
2022-10-25T02:26:10.898Z,92.12
2022-10-25T02:28:41.522Z,92.48
2022-10-25T02:31:18.242Z,92.39
2022-10-25T02:33:49.775Z,92.66
2022-10-25T02:36:24.939Z,92.53
2022-10-25T02:38:56.063Z,92.42
2022-10-25T02:41:28.214Z,92.54
2022-10-25T02:43:58.971Z,92.60
2022-10-25T02:46:30.584Z,92.48
2022-10-25T02:49:00.551Z,92.13
2022-10-25T02:51:31.230Z,92.08
2022-10-25T02:54:03.118Z,92.30
2022-10-25T02:56:32.086Z,92.31
2022-10-25T02:59:03.518Z,92.25
2022-10-25T03:01:34.471Z,92.36
2022-10-25T03:04:06.494Z,92.36
2022-10-25T03:06:36.129Z,92.31
2022-10-25T03:09:05.684Z,92.38
2022-10-25T03:11:36.696Z,92.14
2022-10-25T03:14:06.638Z,92.19
2022-10-25T03:16:38.364Z,92.22
2022-10-25T03:19:07.956Z,92.19
2022-10-25T03:21:38.756Z,92.18
2022-10-25T03:24:12.912Z,92.16
2022-10-25T03:26:41.707Z,92.28
2022-10-25T03:29:13.438Z,92.33
2022-10-25T03:31:43.090Z,92.12
2022-10-25T03:34:14.096Z,91.99
2022-10-25T03:36:44.854Z,92.09
2022-10-25T03:39:15.303Z,92.06
2022-10-25T03:41:45.587Z,91.99
2022-10-25T03:44:15.457Z,92.22
2022-10-25T03:46:45.488Z,92.09
2022-10-25T03:49:14.099Z,92.21
2022-10-25T03:51:43.302Z,92.07
2022-10-25T03:54:13.602Z,92.23
2022-10-25T03:56:44.186Z,92.31
2022-10-25T03:59:13.631Z,92.46
2022-10-25T04:01:43.158Z,92.44
2022-10-25T04:04:13.300Z,92.30
2022-10-25T04:06:44.288Z,92.40
2022-10-25T04:09:15.268Z,92.28
2022-10-25T04:11:46.085Z,92.14
2022-10-25T04:14:14.977Z,92.35
2022-10-25T04:16:45.833Z,91.93
2022-10-25T04:19:16.155Z,91.62
2022-10-25T04:21:47.465Z,91.82
2022-10-25T04:24:16.327Z,91.97
2022-10-25T04:26:45.893Z,91.91
2022-10-25T04:29:16.318Z,91.93
2022-10-25T04:31:49.449Z,91.86
2022-10-25T04:34:18.402Z,92.15
2022-10-25T04:36:47.925Z,91.57
2022-10-25T04:39:18.270Z,91.43
2022-10-25T04:41:49.249Z,91.65
2022-10-25T04:44:18.803Z,91.54
2022-10-25T04:46:49.122Z,91.82
2022-10-25T04:49:18.627Z,91.67
2022-10-25T04:51:48.995Z,91.69
2022-10-25T04:54:20.358Z,91.69
2022-10-25T04:56:49.557Z,91.60
2022-10-25T04:59:23.270Z,91.67
2022-10-25T05:01:56.266Z,91.80
2022-10-25T05:04:26.622Z,91.61
2022-10-25T05:06:56.923Z,91.87
2022-10-25T05:09:26.044Z,91.98
2022-10-25T05:11:56.919Z,92.14
2022-10-25T05:14:25.906Z,92.18
2022-10-25T05:16:54.515Z,92.22
2022-10-25T05:19:23.338Z,92.50
2022-10-25T05:21:52.570Z,92.74
2022-10-25T05:24:23.395Z,92.68
2022-10-25T05:26:52.039Z,92.63
2022-10-25T05:29:21.234Z,92.69
2022-10-25T05:31:50.160Z,92.63
2022-10-25T05:34:20.440Z,92.59
2022-10-25T05:36:52.376Z,92.52
2022-10-25T05:39:22.282Z,92.34
2022-10-25T05:41:51.642Z,92.32
2022-10-25T05:44:20.586Z,92.29
2022-10-25T05:47:15.420Z,92.13
2022-10-25T05:49:45.147Z,92.36
2022-10-25T05:52:15.997Z,92.40
2022-10-25T05:55:14.502Z,92.41
2022-10-25T05:57:54.228Z,92.15
2022-10-25T06:00:25.415Z,92.23
2022-10-25T06:02:55.374Z,92.08
2022-10-25T06:05:26.156Z,91.96
2022-10-25T06:07:55.232Z,91.20
2022-10-25T06:10:27.041Z,90.60
2022-10-25T06:12:57.183Z,90.50
2022-10-25T06:15:26.933Z,90.43
2022-10-25T06:17:58.232Z,90.03
2022-10-25T06:20:28.999Z,89.28
2022-10-25T06:22:59.146Z,88.82
2022-10-25T06:25:28.084Z,87.70
2022-10-25T06:28:03.360Z,86.87
2022-10-25T06:30:37.473Z,86.98
2022-10-25T06:33:09.501Z,87.30
2022-10-25T06:35:38.239Z,86.70
2022-10-25T06:38:08.648Z,87.39
2022-10-25T06:40:39.519Z,87.51
2022-10-25T06:43:11.503Z,87.67
2022-10-25T06:45:43.350Z,87.86
2022-10-25T06:48:13.852Z,88.55
2022-10-25T06:50:43.488Z,88.33
2022-10-25T06:53:16.786Z,88.25
2022-10-25T06:55:50.005Z,88.54
2022-10-25T06:58:20.170Z,88.64
2022-10-25T07:00:50.375Z,88.92
2022-10-25T07:04:10.159Z,89.29
2022-10-25T07:06:40.899Z,89.26
2022-10-25T07:09:10.712Z,89.37
2022-10-25T07:11:42.297Z,89.70
2022-10-25T07:14:12.978Z,89.88
2022-10-25T07:16:42.640Z,90.27
2022-10-25T07:19:11.309Z,90.46
2022-10-25T07:21:40.290Z,90.31
2022-10-25T07:24:11.482Z,90.54
2022-10-25T07:26:40.845Z,90.86
2022-10-25T07:29:09.447Z,90.58
2022-10-25T07:31:41.925Z,90.76
2022-10-25T07:34:14.314Z,90.53
2022-10-25T07:36:43.058Z,90.57
2022-10-25T07:39:11.932Z,90.57
2022-10-25T07:41:40.856Z,90.67
2022-10-25T07:44:14.763Z,90.58
2022-10-25T07:46:45.068Z,90.52
2022-10-25T07:49:14.302Z,90.41
2022-10-25T07:51:43.163Z,90.74
2022-10-25T07:54:11.819Z,90.95
2022-10-25T07:56:40.703Z,91.00
2022-10-25T07:59:09.489Z,90.85
2022-10-25T08:01:38.516Z,91.21
2022-10-25T08:04:07.554Z,91.55
2022-10-25T08:06:36.919Z,91.28
2022-10-25T08:09:14.879Z,91.26
2022-10-25T08:11:54.842Z,91.06
2022-10-25T08:16:57.941Z,91.22
2022-10-25T08:19:26.747Z,90.93
2022-10-25T08:21:55.540Z,91.13
2022-10-25T08:24:24.355Z,91.19
2022-10-25T08:26:53.269Z,90.80
2022-10-25T08:29:22.085Z,90.71
2022-10-25T08:31:51.155Z,90.88
2022-10-25T08:34:20.045Z,91.25
2022-10-25T08:36:51.909Z,91.34
2022-10-25T08:39:20.778Z,91.19
2022-10-25T08:41:58.734Z,91.53
2022-10-25T08:44:47.628Z,91.66
2022-10-25T08:47:23.067Z,91.52
2022-10-25T08:50:07.475Z,91.46
2022-10-25T08:52:59.623Z,91.80
2022-10-25T08:55:41.742Z,91.67
2022-10-25T08:58:32.795Z,91.47
2022-10-25T09:01:13.313Z,91.41
2022-10-25T09:03:43.037Z,90.91
2022-10-25T09:06:30.717Z,91.09
2022-10-25T09:09:26.232Z,90.79
2022-10-25T09:11:55.631Z,91.42
2022-10-25T09:14:49.566Z,91.73
2022-10-25T09:17:22.899Z,91.89
2022-10-25T09:19:58.393Z,91.66
2022-10-25T09:22:30.668Z,91.06
2022-10-25T09:25:18.683Z,90.55
2022-10-25T09:28:04.069Z,90.78
2022-10-25T09:30:42.362Z,90.66
2022-10-25T09:36:04.854Z,90.66
2022-10-25T09:38:42.062Z,91.12
2022-10-25T09:41:23.364Z,91.38
2022-10-25T09:44:05.379Z,90.99
2022-10-25T09:47:09.357Z,90.70
2022-10-25T09:49:50.974Z,90.53
2022-10-25T09:52:32.326Z,90.49
2022-10-25T09:55:21.705Z,90.65
2022-10-25T09:57:51.106Z,90.90
2022-10-25T10:00:20.017Z,91.05
2022-10-25T10:03:17.737Z,91.06
2022-10-25T10:05:57.222Z,90.96
2022-10-25T10:08:28.650Z,91.06
2022-10-25T10:10:58.021Z,90.96
2022-10-25T10:13:56.294Z,91.32
2022-10-25T10:16:32.038Z,91.35
2022-10-25T10:19:22.419Z,91.19
2022-10-25T10:22:15.239Z,90.99
2022-10-25T10:24:49.842Z,90.72
2022-10-25T10:27:22.220Z,90.92
2022-10-25T10:29:57.441Z,91.05
2022-10-25T10:32:38.440Z,90.92
2022-10-25T10:35:24.940Z,90.96
2022-10-25T10:37:54.401Z,91.11
2022-10-25T10:40:25.660Z,91.11
2022-10-25T10:42:58.363Z,91.13
2022-10-25T10:45:32.146Z,91.02
2022-10-25T10:48:08.821Z,90.80
2022-10-25T10:50:57.710Z,90.77
2022-10-25T10:53:38.200Z,90.59
2022-10-25T10:56:19.223Z,90.29
2022-10-25T10:58:53.765Z,90.46
2022-10-25T11:01:33.819Z,90.26
2022-10-25T11:04:06.800Z,89.75
2022-10-25T11:06:36.807Z,89.49
2022-10-25T11:09:19.944Z,89.63
2022-10-25T11:12:11.309Z,89.86
2022-10-25T11:14:42.239Z,89.61
2022-10-25T11:17:21.451Z,89.29
2022-10-25T11:20:04.842Z,88.77
2022-10-25T11:22:42.494Z,88.60
2022-10-25T11:25:50.486Z,88.83
2022-10-25T11:28:46.679Z,89.01
2022-10-25T11:31:36.352Z,88.72
2022-10-25T11:34:13.355Z,89.07
2022-10-25T11:37:08.941Z,89.16
2022-10-25T11:40:18.536Z,89.21
2022-10-25T11:43:43.223Z,89.47
2022-10-25T11:46:36.098Z,89.70
2022-10-25T11:49:48.593Z,89.79
2022-10-25T11:52:40.138Z,89.94
2022-10-25T11:56:04.615Z,90.16
2022-10-25T11:58:48.126Z,89.99
2022-10-25T12:01:33.883Z,90.09
2022-10-25T12:04:59.120Z,90.07
2022-10-25T12:07:31.966Z,90.11
2022-10-25T12:10:18.727Z,89.63
2022-10-25T12:12:54.781Z,89.68
2022-10-25T12:15:53.665Z,90.29
2022-10-25T12:18:40.329Z,89.53
2022-10-25T12:21:12.865Z,88.99
2022-10-25T12:23:52.964Z,88.74
2022-10-25T12:26:40.127Z,88.64
2022-10-25T12:29:27.376Z,88.03
2022-10-25T12:32:01.129Z,88.08
2022-10-25T12:34:30.075Z,88.05
2022-10-25T12:37:14.642Z,88.23
2022-10-25T12:39:46.038Z,88.12
2022-10-25T12:42:16.410Z,88.32
2022-10-25T12:44:53.841Z,88.30
2022-10-25T12:47:46.730Z,87.84
2022-10-25T12:50:37.003Z,87.89
2022-10-25T12:53:20.711Z,88.04
2022-10-25T12:56:23.458Z,87.78
2022-10-25T12:59:11.396Z,88.27
2022-10-25T13:02:11.334Z,88.24
2022-10-25T13:04:59.915Z,88.18
2022-10-25T13:07:33.616Z,87.99
2022-10-25T13:10:20.551Z,87.92
2022-10-25T13:13:05.500Z,88.21
2022-10-25T13:15:46.257Z,88.28
2022-10-25T13:18:47.801Z,88.48
2022-10-25T13:21:38.527Z,88.76
2022-10-25T13:24:10.891Z,88.29
2022-10-25T13:27:16.229Z,88.26
2022-10-25T13:29:45.641Z,88.09
2022-10-25T13:32:22.780Z,88.09
2022-10-25T13:34:52.807Z,88.17
2022-10-25T13:37:33.983Z,88.13
2022-10-25T13:40:25.863Z,88.32
2022-10-25T13:43:21.035Z,88.33
2022-10-25T13:45:55.488Z,88.32
2022-10-25T13:48:34.877Z,88.30
2022-10-25T13:51:17.139Z,88.38
2022-10-25T13:53:52.384Z,88.49
2022-10-25T13:56:23.733Z,88.45
2022-10-25T13:58:55.215Z,88.23
2022-10-25T14:01:26.851Z,88.37
2022-10-25T14:04:03.235Z,88.38
2022-10-25T14:06:36.112Z,88.39
2022-10-25T14:09:27.438Z,88.48
2022-10-25T14:12:19.356Z,88.69
2022-10-25T14:15:08.265Z,88.65
2022-10-25T14:17:43.424Z,88.61
2022-10-25T14:20:34.908Z,88.58
2022-10-25T14:23:06.987Z,88.51
2022-10-25T14:25:49.412Z,88.89
2022-10-25T14:28:31.688Z,88.92
2022-10-25T14:31:04.202Z,88.67
2022-10-25T14:33:39.279Z,88.51
2022-10-25T14:36:25.047Z,88.54
2022-10-25T14:39:00.115Z,88.77
2022-10-25T14:41:35.506Z,88.81
2022-10-25T14:44:20.633Z,88.79
2022-10-25T14:46:50.379Z,88.88
2022-10-25T14:49:21.015Z,88.78
2022-10-25T14:51:59.388Z,88.78
2022-10-25T14:54:38.626Z,88.65
2022-10-25T14:57:13.036Z,88.86
2022-10-25T14:59:48.286Z,88.86
2022-10-25T15:02:42.554Z,88.67
2022-10-25T15:05:21.982Z,88.74
2022-10-25T15:08:00.936Z,88.74
2022-10-25T15:10:43.157Z,88.83
2022-10-25T15:13:21.044Z,88.78
2022-10-25T15:15:51.793Z,88.55
2022-10-25T15:18:38.628Z,88.66
2022-10-25T15:21:18.006Z,88.54
2022-10-25T15:24:12.042Z,88.65
2022-10-25T15:27:01.195Z,88.60
2022-10-25T15:32:27.487Z,88.74
2022-10-25T15:35:00.095Z,88.77
2022-10-25T15:37:31.791Z,88.75
2022-10-25T15:40:04.869Z,88.48
2022-10-25T15:42:37.368Z,88.46
2022-10-25T15:45:07.741Z,88.38
2022-10-25T15:47:38.005Z,88.31
2022-10-25T15:50:19.442Z,88.46
2022-10-25T15:52:52.394Z,88.75
2022-10-25T15:55:33.382Z,88.75
2022-10-25T15:58:08.312Z,88.95
2022-10-25T16:00:44.754Z,89.01
2022-10-25T16:03:26.513Z,88.89
2022-10-25T16:05:55.280Z,88.74
2022-10-25T16:08:26.309Z,88.92
2022-10-25T16:10:58.664Z,88.92
2022-10-25T16:13:33.504Z,88.93
2022-10-25T16:16:21.978Z,88.84
2022-10-25T16:18:57.690Z,88.91
2022-10-25T16:21:29.281Z,88.99
2022-10-25T16:23:59.844Z,88.88
2022-10-25T16:26:46.559Z,89.02
2022-10-25T16:29:24.551Z,88.91
2022-10-25T16:31:54.907Z,89.05
2022-10-25T16:34:25.387Z,89.11
2022-10-25T16:36:55.687Z,88.92
2022-10-25T16:39:27.371Z,88.97
2022-10-25T16:41:58.681Z,89.29
2022-10-25T16:44:30.952Z,89.21
2022-10-25T16:47:00.742Z,89.21
2022-10-25T16:49:31.067Z,89.27
2022-10-25T16:52:03.327Z,89.36
2022-10-25T16:54:32.313Z,89.25
2022-10-25T16:57:03.296Z,89.32
2022-10-25T16:59:34.227Z,89.37
2022-10-25T17:02:11.508Z,89.50
2022-10-25T17:04:42.336Z,89.45
2022-10-25T17:07:13.013Z,89.52
2022-10-25T17:09:42.921Z,89.35
2022-10-25T17:12:15.720Z,89.62
2022-10-25T17:14:45.308Z,89.56
2022-10-25T17:17:16.207Z,89.59
2022-10-25T17:19:45.431Z,89.61
2022-10-25T17:22:15.402Z,89.68
2022-10-25T17:24:44.458Z,89.89
2022-10-25T17:27:13.357Z,89.64
2022-10-25T17:29:45.161Z,89.73
2022-10-25T17:32:16.161Z,89.56
2022-10-25T17:34:48.336Z,89.42
2022-10-25T17:37:19.069Z,89.58
2022-10-25T17:39:49.375Z,89.81
2022-10-25T17:42:22.319Z,89.84
2022-10-25T17:44:54.564Z,89.97
2022-10-25T17:47:28.684Z,89.91
2022-10-25T17:50:02.492Z,89.66
2022-10-25T17:52:34.194Z,89.63
2022-10-25T17:55:05.481Z,89.52
2022-10-25T17:57:35.489Z,89.62
2022-10-25T18:00:06.939Z,89.59
2022-10-25T18:03:36.362Z,89.53
2022-10-25T18:06:12.697Z,89.72
2022-10-25T18:08:44.356Z,89.56
2022-10-25T18:11:24.862Z,89.77
2022-10-25T18:13:59.662Z,89.84
2022-10-25T18:16:31.815Z,89.58
2022-10-25T18:19:04.815Z,89.89
2022-10-25T18:21:38.199Z,89.79
2022-10-25T18:24:18.111Z,89.76
2022-10-25T18:26:49.143Z,89.67
2022-10-25T18:29:20.037Z,89.80
2022-10-25T18:31:51.781Z,89.94
2022-10-25T18:34:25.946Z,89.86
2022-10-25T18:36:55.648Z,89.80
2022-10-25T18:39:26.693Z,89.84
2022-10-25T18:41:56.779Z,89.98
2022-10-25T18:44:25.999Z,90.01
2022-10-25T18:46:58.077Z,89.95
2022-10-25T18:49:30.397Z,90.06
2022-10-25T18:52:02.957Z,90.04
2022-10-25T18:54:33.488Z,90.09
2022-10-25T18:57:05.907Z,90.15
2022-10-25T18:59:37.383Z,90.40
2022-10-25T19:02:12.045Z,90.36
2022-10-25T19:04:42.598Z,90.38
2022-10-25T19:07:17.461Z,90.33
2022-10-25T19:09:48.283Z,90.28
2022-10-25T19:12:20.961Z,90.35
2022-10-25T19:14:55.379Z,90.49
2022-10-25T19:17:25.986Z,90.58
2022-10-25T19:19:56.938Z,90.45
2022-10-25T19:22:27.347Z,90.41
2022-10-25T19:25:00.403Z,90.36
2022-10-25T19:27:37.565Z,90.42
2022-10-25T19:30:08.349Z,90.44
2022-10-25T19:32:42.456Z,90.49
2022-10-25T19:35:13.619Z,90.56
2022-10-25T19:37:47.122Z,90.43
2022-10-25T19:40:21.641Z,90.59
2022-10-25T19:42:55.657Z,90.52
2022-10-25T19:45:27.974Z,90.44
2022-10-25T19:48:02.494Z,90.43
2022-10-25T19:50:34.531Z,90.76
2022-10-25T19:53:07.785Z,90.65
2022-10-25T19:55:43.492Z,90.79
2022-10-25T19:58:16.752Z,90.48
2022-10-25T20:01:27.553Z,90.64
2022-10-25T20:03:59.984Z,90.43
2022-10-25T20:06:40.990Z,90.33
2022-10-25T20:09:22.076Z,90.33
2022-10-25T20:11:58.701Z,90.20
2022-10-25T20:14:39.124Z,90.22
2022-10-25T20:17:16.489Z,90.23
2022-10-25T20:19:49.222Z,90.21
2022-10-25T20:22:38.671Z,90.28
2022-10-25T20:27:53.141Z,90.70
2022-10-25T20:30:22.766Z,90.54
2022-10-25T20:32:53.093Z,90.41
2022-10-25T20:35:27.978Z,90.51
2022-10-25T20:38:00.037Z,90.69
2022-10-25T20:40:30.671Z,90.49
2022-10-25T20:43:04.105Z,90.67
2022-10-25T20:45:34.131Z,90.50
2022-10-25T20:48:05.409Z,90.62
2022-10-25T20:50:34.736Z,90.54
2022-10-25T20:53:10.333Z,90.69
2022-10-25T20:55:40.057Z,90.62
2022-10-25T20:58:10.403Z,90.82
2022-10-25T21:00:41.252Z,90.64
2022-10-25T21:03:41.386Z,90.25
2022-10-25T21:06:13.373Z,90.19
2022-10-25T21:08:43.514Z,90.14
2022-10-25T21:11:13.957Z,90.17
2022-10-25T21:13:45.753Z,90.16
2022-10-25T21:16:17.189Z,90.12
2022-10-25T21:18:47.616Z,90.26
2022-10-25T21:21:18.398Z,90.33
2022-10-25T21:23:55.952Z,90.52
2022-10-25T21:26:26.722Z,90.73
2022-10-25T21:28:55.355Z,90.62
2022-10-25T21:31:27.148Z,90.62
2022-10-25T21:33:59.416Z,90.69
2022-10-25T21:36:30.786Z,90.95
2022-10-25T21:39:00.032Z,90.67
2022-10-25T21:41:32.395Z,90.77
2022-10-25T21:44:03.006Z,90.79
2022-10-25T21:46:32.983Z,90.98
2022-10-25T21:49:01.612Z,90.87
2022-10-25T21:51:30.483Z,90.82
2022-10-25T21:54:01.766Z,90.69
2022-10-25T21:56:31.880Z,90.82
2022-10-25T21:59:01.377Z,90.66
2022-10-25T22:01:33.497Z,90.64
2022-10-25T22:04:29.820Z,90.81
2022-10-25T22:06:59.053Z,90.88
2022-10-25T22:09:29.483Z,90.90
2022-10-25T22:11:58.538Z,90.97
2022-10-25T22:14:29.063Z,90.94
2022-10-25T22:16:58.295Z,90.93
2022-10-25T22:19:28.964Z,90.95
2022-10-25T22:21:58.847Z,91.00
2022-10-25T22:24:27.928Z,91.06
2022-10-25T22:26:59.754Z,90.93
2022-10-25T22:29:30.374Z,90.94
2022-10-25T22:32:01.264Z,91.00
2022-10-25T22:34:31.371Z,91.19
2022-10-25T22:37:01.687Z,90.93
2022-10-25T22:39:31.032Z,91.11
2022-10-25T22:42:03.433Z,91.07
2022-10-25T22:44:33.524Z,91.27
2022-10-25T22:47:03.005Z,91.10
2022-10-25T22:49:32.317Z,91.22
2022-10-25T22:52:01.397Z,91.17
2022-10-25T22:54:30.658Z,91.29
2022-10-25T22:56:59.974Z,91.19
2022-10-25T22:59:30.178Z,91.22
2022-10-25T23:01:59.699Z,91.44
2022-10-25T23:04:34.162Z,91.51
2022-10-25T23:07:03.312Z,91.50
2022-10-25T23:09:32.294Z,91.53
2022-10-25T23:12:01.979Z,91.37
2022-10-25T23:14:30.617Z,91.43
2022-10-25T23:17:02.327Z,91.43
2022-10-25T23:19:33.527Z,91.35
2022-10-25T23:22:03.777Z,91.31
2022-10-25T23:24:37.100Z,91.35
2022-10-25T23:27:08.962Z,91.34
2022-10-25T23:29:37.579Z,91.21
2022-10-25T23:32:07.699Z,91.16
2022-10-25T23:34:39.128Z,90.98
2022-10-25T23:37:08.420Z,91.12
2022-10-25T23:39:38.552Z,91.19
2022-10-25T23:42:08.697Z,91.26
2022-10-25T23:44:38.037Z,91.25
2022-10-25T23:47:08.227Z,91.50
2022-10-25T23:49:37.372Z,91.45
2022-10-25T23:52:06.332Z,91.65
2022-10-25T23:54:36.905Z,91.84
2022-10-25T23:57:07.186Z,92.09
2022-10-25T23:59:36.193Z,92.28
